Track Ильченко Даниил

Time Latitude Longitude Accuracy (66% radius in meters) Altitude (meters) Speed (km/hour) Bearing (degrees) Battery (%) GPS flag
06:44:58 57.203695 60.118629 0 0 0 0 1 delete
06:44:54 57.203770 60.118399 0 0 0 0 1 delete
06:44:49 57.203856 60.118068 0 0 0 0 1 delete
06:44:44 57.203855 60.117685 0 0 0 0 1 delete
06:44:38 57.203753 60.117334 0 0 0 0 1 delete
06:44:32 57.203675 60.117022 0 0 0 0 1 delete
06:44:26 57.203656 60.116685 0 0 0 0 1 delete
06:44:19 57.203660 60.116324 0 0 0 0 1 delete
06:44:11 57.203575 60.116002 0 0 0 0 1 delete
06:44:06 57.203429 60.115804 0 0 0 0 1 delete
06:44:01 57.203284 60.115564 0 0 0 0 1 delete
06:43:56 57.203181 60.115270 0 0 0 0 1 delete
06:43:51 57.203121 60.115035 0 0 0 0 1 delete
06:43:50 57.203131 60.115009 0 0 0 0 1 delete
06:43:42 57.203295 60.114873 0 0 0 0 1 delete
06:43:33 57.203354 60.114569 0 0 0 0 1 delete
06:43:32 57.203356 60.114576 0 0 0 0 1 delete
06:43:26 57.203335 60.114841 0 0 0 0 1 delete
06:43:23 57.203383 60.114903 0 0 0 0 1 delete
06:43:18 57.203482 60.114946 0 0 0 0 1 delete
06:43:16 57.203506 60.114907 0 0 0 0 1 delete
06:43:14 57.203518 60.114856 0 0 0 0 1 delete
06:43:03 57.203664 60.114641 0 0 0 0 1 delete
06:42:56 57.203792 60.114735 0 0 0 0 1 delete
06:42:53 57.203843 60.114708 0 0 0 0 1 delete
06:42:45 57.204023 60.114609 0 0 0 0 1 delete
06:42:40 57.204132 60.114826 0 0 0 0 1 delete
06:42:34 57.204283 60.115087 0 0 0 0 1 delete
06:42:28 57.204408 60.115067 0 0 0 0 1 delete
06:42:18 57.204554 60.115085 0 0 0 0 1 delete
06:42:12 57.204657 60.114999 0 0 0 0 1 delete
06:42:08 57.204715 60.114916 0 0 0 0 1 delete
06:42:05 57.204717 60.114740 0 0 0 0 1 delete
06:42:00 57.204653 60.114430 0 0 0 0 1 delete
06:41:56 57.204519 60.114194 0 0 0 0 1 delete
06:41:52 57.204344 60.114033 0 0 0 0 1 delete
06:41:47 57.204279 60.113720 0 0 0 0 1 delete
06:41:42 57.204255 60.113390 0 0 0 0 1 delete
06:41:38 57.204172 60.113091 0 0 0 0 1 delete
06:41:33 57.203984 60.112865 0 0 0 0 1 delete
06:41:31 57.203931 60.112783 0 0 0 0 1 delete
06:41:25 57.203873 60.112472 0 0 0 0 1 delete
06:41:22 57.203850 60.112304 0 0 0 0 1 delete
06:41:16 57.203714 60.112012 0 0 0 0 1 delete
06:41:09 57.203598 60.111758 0 0 0 0 1 delete
06:41:03 57.203524 60.111529 0 0 0 0 1 delete
06:40:55 57.203480 60.111194 0 0 0 0 1 delete
06:40:54 57.203474 60.111155 0 0 0 0 1 delete
06:40:46 57.203436 60.110808 0 0 0 0 1 delete
06:40:38 57.203360 60.110487 0 0 0 0 1 delete